createdAt,value
2023-03-31T00:01:09.228Z,98934.75
2023-03-31T00:03:39.242Z,98928.75
2023-03-31T00:06:06.707Z,98924.56
2023-03-31T00:08:37.325Z,98918.53
2023-03-31T00:11:07.838Z,98920.53
2023-03-31T00:13:36.221Z,98916.34
2023-03-31T00:16:06.438Z,98912.16
2023-03-31T00:18:34.168Z,98905.88
2023-03-31T00:21:25.312Z,98908.81
2023-03-31T00:24:12.384Z,98905.44
2023-03-31T00:26:39.571Z,98895.66
2023-03-31T00:29:08.964Z,98905.44
2023-03-31T00:31:36.454Z,98899.44
2023-03-31T00:34:03.474Z,98892.78
2023-03-31T00:36:30.487Z,98898.78
2023-03-31T00:39:00.687Z,98894.59
2023-03-31T00:41:29.872Z,98898.38
2023-03-31T00:44:09.139Z,98901.03
2023-03-31T00:46:45.006Z,98894.19
2023-03-31T00:49:18.640Z,98892.66
2023-03-31T00:51:46.430Z,98892.66
2023-03-31T00:54:13.390Z,98891.81
2023-03-31T00:56:43.415Z,98884.03
2023-03-31T00:59:13.555Z,98888.50
2023-03-31T01:01:43.355Z,98882.47
2023-03-31T01:04:11.868Z,98883.31
2023-03-31T01:06:46.991Z,98878.00
2023-03-31T01:09:17.287Z,98875.34
2023-03-31T01:11:48.159Z,98865.84
2023-03-31T01:14:15.352Z,98862.34
2023-03-31T01:16:42.561Z,98861.38
2023-03-31T01:19:19.600Z,98860.53
2023-03-31T01:22:28.490Z,98858.06
2023-03-31T01:25:18.248Z,98856.38
2023-03-31T01:28:18.566Z,98852.06
2023-03-31T01:31:12.248Z,98839.75
2023-03-31T01:34:06.850Z,98840.72
2023-03-31T01:36:55.000Z,98838.91
2023-03-31T01:40:17.717Z,98828.47
2023-03-31T01:43:02.591Z,98833.78
2023-03-31T01:45:35.792Z,98825.81
2023-03-31T01:48:40.049Z,98823.44
2023-03-31T01:51:44.300Z,98818.28
2023-03-31T01:54:39.626Z,98818.13
2023-03-31T01:57:21.445Z,98812.84
2023-03-31T02:00:04.616Z,98810.03
2023-03-31T02:03:18.235Z,98812.84
2023-03-31T02:05:53.048Z,98803.19
2023-03-31T02:08:38.448Z,98795.22
2023-03-31T02:11:05.793Z,98797.75
2023-03-31T02:13:34.914Z,98786.59
2023-03-31T02:16:07.465Z,98782.97
2023-03-31T02:18:38.580Z,98776.94
2023-03-31T02:21:09.084Z,98779.31
2023-03-31T02:23:38.803Z,98778.63
2023-03-31T02:26:37.752Z,98779.47
2023-03-31T02:29:05.101Z,98779.31
2023-03-31T02:31:50.005Z,98775.69
2023-03-31T02:34:17.188Z,98776.81
2023-03-31T02:36:46.144Z,98770.97
2023-03-31T02:39:18.524Z,98770.66
2023-03-31T02:41:45.536Z,98770.66
2023-03-31T02:44:12.777Z,98773.31
2023-03-31T02:46:41.745Z,98774.16
2023-03-31T02:49:11.141Z,98775.97
2023-03-31T02:51:50.059Z,98768.03
2023-03-31T02:54:38.394Z,98760.06
2023-03-31T02:57:33.385Z,98765.66
2023-03-31T03:00:16.068Z,98763.97
2023-03-31T03:02:55.258Z,98762.03
2023-03-31T03:05:28.060Z,98762.03
2023-03-31T03:08:06.985Z,98748.75
2023-03-31T03:11:05.081Z,98751.41
2023-03-31T03:13:40.062Z,98746.13
2023-03-31T03:16:19.551Z,98740.66
2023-03-31T03:18:59.482Z,98739.97
2023-03-31T03:21:26.990Z,98740.09
2023-03-31T03:23:55.109Z,98742.75
2023-03-31T03:26:24.866Z,98746.25
2023-03-31T03:28:52.080Z,98746.41
2023-03-31T03:31:20.206Z,98741.94
2023-03-31T03:33:47.190Z,98741.09
2023-03-31T03:36:14.250Z,98738.56
2023-03-31T03:38:41.172Z,98738.44
2023-03-31T03:41:08.421Z,98738.44
2023-03-31T03:43:35.376Z,98734.94
2023-03-31T03:46:02.696Z,98737.59
2023-03-31T03:48:30.042Z,98731.03
2023-03-31T03:51:00.733Z,98733.53
2023-03-31T03:53:28.072Z,98723.38
2023-03-31T03:55:55.122Z,98726.81
2023-03-31T03:58:22.108Z,98730.47
2023-03-31T04:00:49.237Z,98722.66
2023-03-31T04:03:16.903Z,98723.38
2023-03-31T04:05:43.952Z,98728.50
2023-03-31T04:08:11.137Z,98725.03
2023-03-31T04:10:38.077Z,98732.97
2023-03-31T04:13:05.062Z,98728.50
2023-03-31T04:15:31.945Z,98728.50
2023-03-31T04:17:58.988Z,98724.88
2023-03-31T04:20:31.922Z,98719.59
2023-03-31T04:22:58.855Z,98723.06
2023-03-31T04:25:25.850Z,98723.59
2023-03-31T04:27:56.187Z,98715.22
2023-03-31T04:30:31.316Z,98707.31
2023-03-31T04:33:00.333Z,98707.41
2023-03-31T04:35:49.995Z,98703.69
2023-03-31T04:38:22.693Z,98696.16
2023-03-31T04:40:51.629Z,98703.34
2023-03-31T04:43:20.511Z,98697.75
2023-03-31T04:45:47.572Z,98693.66
2023-03-31T04:48:14.636Z,98700.47
2023-03-31T04:50:41.808Z,98692.34
2023-03-31T04:53:09.128Z,98696.34
2023-03-31T04:55:36.701Z,98695.06
2023-03-31T04:58:03.719Z,98692.16
2023-03-31T05:00:30.791Z,98687.50
2023-03-31T05:02:57.824Z,98691.84
2023-03-31T05:05:24.933Z,98700.56
2023-03-31T05:07:51.924Z,98700.97
2023-03-31T05:10:19.078Z,98706.31
2023-03-31T05:12:46.177Z,98701.16
2023-03-31T05:15:13.237Z,98713.28
2023-03-31T05:17:40.410Z,98704.66
2023-03-31T05:20:08.817Z,98715.66
2023-03-31T05:22:38.063Z,98705.88
2023-03-31T05:25:07.785Z,98703.44
2023-03-31T05:27:36.438Z,98704.91
2023-03-31T05:30:04.820Z,98694.47
2023-03-31T05:32:31.774Z,98691.88
2023-03-31T05:34:58.898Z,98694.78
2023-03-31T05:37:26.803Z,98702.56
2023-03-31T05:39:54.248Z,98703.25
2023-03-31T05:42:21.529Z,98705.69
2023-03-31T05:44:48.650Z,98713.97
2023-03-31T05:47:16.086Z,98710.41
2023-03-31T05:49:43.092Z,98712.53
2023-03-31T05:52:12.142Z,98705.72
2023-03-31T05:54:39.314Z,98722.66
2023-03-31T05:57:06.489Z,98718.47
2023-03-31T05:59:35.545Z,98734.44
2023-03-31T06:02:03.728Z,98731.75
2023-03-31T06:04:32.830Z,98729.91
2023-03-31T06:07:00.440Z,98724.78
2023-03-31T06:09:28.661Z,98727.44
2023-03-31T06:11:55.787Z,98732.75
2023-03-31T06:14:23.026Z,98736.38
2023-03-31T06:16:50.091Z,98745.84
2023-03-31T06:19:17.138Z,98753.81
2023-03-31T06:21:44.095Z,98752.97
2023-03-31T06:24:11.479Z,98747.09
2023-03-31T06:26:38.513Z,98748.38
2023-03-31T06:29:05.578Z,98745.63
2023-03-31T06:31:32.714Z,98741.53
2023-03-31T06:34:00.244Z,98749.19
2023-03-31T06:36:27.316Z,98746.41
2023-03-31T06:38:54.450Z,98748.06
2023-03-31T06:41:22.810Z,98747.91
2023-03-31T06:43:50.020Z,98747.91
2023-03-31T06:46:17.128Z,98749.56
2023-03-31T06:48:44.121Z,98756.56
2023-03-31T06:51:11.588Z,98759.22
2023-03-31T06:53:38.626Z,98756.56
2023-03-31T06:56:07.823Z,98758.22
2023-03-31T06:58:35.385Z,98754.59
2023-03-31T07:01:07.032Z,98761.88
2023-03-31T07:03:34.492Z,98762.56
2023-03-31T07:06:01.796Z,98774.56
2023-03-31T07:08:29.124Z,98777.00
2023-03-31T07:10:58.431Z,98775.25
2023-03-31T07:13:26.445Z,98782.91
2023-03-31T07:15:54.377Z,98773.72
2023-03-31T07:18:21.654Z,98773.41
2023-03-31T07:20:50.021Z,98777.59
2023-03-31T07:23:17.666Z,98786.41
2023-03-31T07:25:45.755Z,98792.56
2023-03-31T07:28:12.847Z,98787.66
2023-03-31T07:30:41.705Z,98789.66
2023-03-31T07:33:09.239Z,98779.69
2023-03-31T07:35:42.877Z,98790.25
2023-03-31T07:38:13.418Z,98789.84
2023-03-31T07:40:44.557Z,98791.19
2023-03-31T07:43:13.250Z,98783.75
2023-03-31T07:45:41.311Z,98788.91
2023-03-31T07:48:08.787Z,98792.25
2023-03-31T07:50:35.940Z,98796.56
2023-03-31T07:53:03.017Z,98793.63
2023-03-31T07:55:30.155Z,98797.78
2023-03-31T07:57:57.354Z,98800.16
2023-03-31T08:00:24.768Z,98787.72
2023-03-31T08:02:52.074Z,98800.84
2023-03-31T08:05:22.012Z,98798.00
2023-03-31T08:07:51.421Z,98798.84
2023-03-31T08:10:27.056Z,98812.84
2023-03-31T08:12:54.736Z,98814.50
2023-03-31T08:15:22.373Z,98817.81
2023-03-31T08:17:49.412Z,98814.19
2023-03-31T08:20:16.903Z,98821.50
2023-03-31T08:22:43.915Z,98825.00
2023-03-31T08:25:11.465Z,98832.81
2023-03-31T08:27:40.751Z,98833.78
2023-03-31T08:30:10.329Z,98834.63
2023-03-31T08:32:37.986Z,98837.13
2023-03-31T08:35:05.837Z,98842.44
2023-03-31T08:37:33.251Z,98842.28
2023-03-31T08:40:00.862Z,98841.69
2023-03-31T08:42:37.387Z,98842.53
2023-03-31T08:45:26.912Z,98839.03
2023-03-31T08:47:58.512Z,98838.88
2023-03-31T08:50:30.982Z,98840.38
2023-03-31T08:53:30.292Z,98837.41
2023-03-31T08:55:59.145Z,98837.88
2023-03-31T08:58:29.105Z,98844.84
2023-03-31T09:01:08.498Z,98841.22
2023-03-31T09:04:00.358Z,98840.38
2023-03-31T09:06:33.782Z,98840.09
2023-03-31T09:09:04.385Z,98839.09
2023-03-31T09:11:44.977Z,98848.91
2023-03-31T09:14:36.506Z,98842.06
2023-03-31T09:17:22.472Z,98847.22
2023-03-31T09:19:56.759Z,98855.50
2023-03-31T09:22:28.366Z,98857.72
2023-03-31T09:25:06.505Z,98859.38
2023-03-31T09:27:37.836Z,98870.34
2023-03-31T09:30:34.241Z,98875.94
2023-03-31T09:33:18.534Z,98881.41
2023-03-31T09:35:46.881Z,98876.91
2023-03-31T09:38:16.716Z,98883.09
2023-03-31T09:40:44.202Z,98887.56
2023-03-31T09:43:38.918Z,98891.06
2023-03-31T09:46:19.028Z,98897.50
2023-03-31T09:49:13.807Z,98906.47
2023-03-31T09:51:47.920Z,98903.66
2023-03-31T09:54:30.085Z,98910.63
2023-03-31T09:56:57.617Z,98915.09
2023-03-31T09:59:36.284Z,98918.78
2023-03-31T10:02:21.879Z,98915.44
2023-03-31T10:04:49.191Z,98918.22
2023-03-31T10:07:22.429Z,98927.72
2023-03-31T10:09:49.710Z,98924.09
2023-03-31T10:12:25.102Z,98922.28
2023-03-31T10:14:54.938Z,98931.78
2023-03-31T10:17:25.508Z,98933.28
2023-03-31T10:19:54.580Z,98937.75
2023-03-31T10:22:22.242Z,98939.28
2023-03-31T10:24:52.042Z,98949.75
2023-03-31T10:27:29.139Z,98944.44
2023-03-31T10:30:10.038Z,98935.50
2023-03-31T10:32:43.671Z,98947.94
2023-03-31T10:35:34.143Z,98958.28
2023-03-31T10:38:08.023Z,98960.94
2023-03-31T10:40:36.906Z,98959.56
2023-03-31T10:43:19.111Z,98966.84
2023-03-31T10:46:04.936Z,98978.78
2023-03-31T10:48:41.436Z,98983.41
2023-03-31T10:51:21.524Z,98987.88
2023-03-31T10:53:54.404Z,98983.53
2023-03-31T10:56:38.314Z,98997.13
2023-03-31T10:59:26.881Z,98997.75
2023-03-31T11:02:31.953Z,99002.09
2023-03-31T11:05:31.459Z,99006.19
2023-03-31T11:08:13.681Z,99009.41
2023-03-31T11:11:11.538Z,99016.72
2023-03-31T11:13:59.950Z,99024.69
2023-03-31T11:16:32.880Z,99030.28
2023-03-31T11:19:03.875Z,99026.53
2023-03-31T11:21:38.633Z,99029.59
2023-03-31T11:24:18.358Z,99033.03
2023-03-31T11:26:45.734Z,99036.94
2023-03-31T11:29:48.184Z,99038.47
2023-03-31T11:32:33.710Z,99038.75
2023-03-31T11:35:18.866Z,99042.59
2023-03-31T11:38:08.877Z,99049.59
2023-03-31T11:40:55.359Z,99052.97
2023-03-31T11:43:30.406Z,99056.72
2023-03-31T11:46:33.838Z,99055.47
2023-03-31T11:49:28.324Z,99069.44
2023-03-31T11:51:59.992Z,99080.75
2023-03-31T11:54:55.995Z,99069.56
2023-03-31T11:57:31.605Z,99078.94
2023-03-31T12:00:17.200Z,99075.31
2023-03-31T12:03:05.715Z,99085.94
2023-03-31T12:05:35.352Z,99084.97
2023-03-31T12:08:15.251Z,99089.00
2023-03-31T12:10:50.096Z,99096.00
2023-03-31T12:13:35.732Z,99096.97
2023-03-31T12:16:13.451Z,99106.06
2023-03-31T12:18:48.562Z,99105.22
2023-03-31T12:21:16.538Z,99112.06
2023-03-31T12:23:47.008Z,99109.84
2023-03-31T12:26:32.396Z,99107.03
2023-03-31T12:29:07.203Z,99110.81
2023-03-31T12:31:38.371Z,99113.34
2023-03-31T12:34:15.861Z,99125.22
2023-03-31T12:36:55.474Z,99120.63
2023-03-31T12:39:45.099Z,99127.88
2023-03-31T12:42:30.843Z,99132.78
2023-03-31T12:45:26.092Z,99123.41
2023-03-31T12:48:34.321Z,99133.50
2023-03-31T12:51:16.499Z,99134.63
2023-03-31T12:54:04.633Z,99139.34
2023-03-31T12:57:01.190Z,99143.28
2023-03-31T12:59:32.763Z,99145.22
2023-03-31T13:02:12.051Z,99145.38
2023-03-31T13:04:39.550Z,99146.34
2023-03-31T13:07:33.588Z,99156.25
2023-03-31T13:10:27.891Z,99156.53
2023-03-31T13:13:03.295Z,99166.47
2023-03-31T13:15:31.836Z,99164.78
2023-03-31T13:18:04.116Z,99173.00
2023-03-31T13:20:41.298Z,99177.63
2023-03-31T13:23:22.055Z,99178.63
2023-03-31T13:25:49.169Z,99183.34
2023-03-31T13:28:22.066Z,99178.16
2023-03-31T13:31:02.277Z,99188.78
2023-03-31T13:33:32.677Z,99203.03
2023-03-31T13:36:14.281Z,99204.69
2023-03-31T13:39:07.422Z,99204.16
2023-03-31T13:41:56.685Z,99211.44
2023-03-31T13:44:41.914Z,99208.88
2023-03-31T13:47:34.669Z,99221.31
2023-03-31T13:50:20.023Z,99216.56
2023-03-31T13:53:16.362Z,99222.00
2023-03-31T13:56:18.731Z,99226.72
2023-03-31T13:58:48.307Z,99223.25
2023-03-31T14:01:37.055Z,99233.97
2023-03-31T14:04:26.630Z,99231.47
2023-03-31T14:07:10.539Z,99235.78
2023-03-31T14:09:42.148Z,99244.84
2023-03-31T14:12:30.516Z,99244.84
2023-03-31T14:14:58.262Z,99241.41
2023-03-31T14:17:31.906Z,99236.78
2023-03-31T14:20:26.242Z,99241.81
2023-03-31T14:23:24.414Z,99248.44
2023-03-31T14:26:03.644Z,99248.00
2023-03-31T14:28:55.275Z,99255.66
2023-03-31T14:31:35.979Z,99261.88
2023-03-31T14:34:31.222Z,99261.03
2023-03-31T14:37:14.100Z,99265.41
2023-03-31T14:39:44.901Z,99269.22
2023-03-31T14:42:40.111Z,99269.50
2023-03-31T14:45:31.839Z,99273.59
2023-03-31T14:48:13.913Z,99268.41
2023-03-31T14:50:46.473Z,99280.97
2023-03-31T14:53:18.544Z,99269.81
2023-03-31T14:55:58.202Z,99287.13
2023-03-31T14:58:35.299Z,99282.66
2023-03-31T15:01:08.000Z,99291.31
2023-03-31T15:03:42.169Z,99287.13
2023-03-31T15:06:11.087Z,99283.53
2023-03-31T15:08:39.095Z,99300.31
2023-03-31T15:11:12.964Z,99301.75
2023-03-31T15:16:30.753Z,99303.97
2023-03-31T15:19:00.211Z,99302.00
2023-03-31T15:21:31.558Z,99308.16
2023-03-31T15:23:59.357Z,99318.53
2023-03-31T15:26:40.720Z,99318.53
2023-03-31T15:29:21.602Z,99317.69
2023-03-31T15:31:49.361Z,99327.34
2023-03-31T15:34:28.608Z,99334.19
2023-03-31T15:36:57.766Z,99334.88
2023-03-31T15:39:29.262Z,99346.09
2023-03-31T15:41:57.996Z,99353.22
2023-03-31T15:44:48.220Z,99361.19
2023-03-31T15:47:21.210Z,99361.03
2023-03-31T15:50:01.456Z,99360.34
2023-03-31T15:52:34.682Z,99374.44
2023-03-31T15:55:22.226Z,99372.75
2023-03-31T15:57:50.420Z,99372.75
2023-03-31T16:00:52.932Z,99376.94
2023-03-31T16:03:39.030Z,99379.59
2023-03-31T16:06:23.411Z,99383.38
2023-03-31T16:09:02.133Z,99395.97
2023-03-31T16:11:38.076Z,99390.66
2023-03-31T16:14:17.732Z,99394.28
2023-03-31T16:17:02.222Z,99402.97
2023-03-31T16:19:38.724Z,99405.63
2023-03-31T16:22:06.641Z,99395.81
2023-03-31T16:24:36.397Z,99415.00
2023-03-31T16:27:10.025Z,99424.78
2023-03-31T16:29:38.600Z,99424.50
2023-03-31T16:32:10.933Z,99423.94
2023-03-31T16:35:01.963Z,99426.59
2023-03-31T16:37:29.275Z,99433.16
2023-03-31T16:39:57.144Z,99427.84
2023-03-31T16:42:24.934Z,99434.84
2023-03-31T16:45:09.441Z,99440.41
2023-03-31T16:47:39.516Z,99445.72
2023-03-31T16:50:08.095Z,99445.13
2023-03-31T16:52:36.312Z,99451.56
2023-03-31T16:55:03.489Z,99450.72
2023-03-31T16:57:30.752Z,99456.88
2023-03-31T16:59:59.083Z,99458.81
2023-03-31T17:02:26.599Z,99455.19
2023-03-31T17:04:56.566Z,99461.22
2023-03-31T17:07:26.554Z,99468.28
2023-03-31T17:09:53.715Z,99471.06
2023-03-31T17:12:20.921Z,99487.34
2023-03-31T17:14:48.093Z,99488.16
2023-03-31T17:17:17.783Z,99491.19
2023-03-31T17:19:46.080Z,99499.75
2023-03-31T17:22:13.214Z,99504.06
2023-03-31T17:24:41.638Z,99502.72
2023-03-31T17:27:10.080Z,99503.31
2023-03-31T17:29:38.024Z,99511.97
2023-03-31T17:32:05.412Z,99515.22
2023-03-31T17:34:33.865Z,99528.34
2023-03-31T17:37:01.139Z,99531.00
2023-03-31T17:39:28.395Z,99527.25
2023-03-31T17:41:55.592Z,99531.75
2023-03-31T17:44:25.213Z,99535.09
2023-03-31T17:46:53.103Z,99539.16
2023-03-31T17:49:20.906Z,99542.28
2023-03-31T17:51:48.993Z,99552.28
2023-03-31T17:54:16.189Z,99563.09
2023-03-31T17:56:43.543Z,99561.69
2023-03-31T17:59:12.821Z,99568.44
2023-03-31T18:01:40.272Z,99574.78
2023-03-31T18:04:07.716Z,99569.38
2023-03-31T18:06:34.821Z,99569.81
2023-03-31T18:09:02.378Z,99578.47
2023-03-31T18:11:29.833Z,99581.56
2023-03-31T18:13:57.196Z,99579.19
2023-03-31T18:16:24.874Z,99584.22
2023-03-31T18:18:52.547Z,99585.94
2023-03-31T18:21:21.939Z,99590.47
2023-03-31T18:23:53.222Z,99596.06
2023-03-31T18:26:22.429Z,99603.50
2023-03-31T18:28:50.251Z,99608.56
2023-03-31T18:31:18.251Z,99617.13
2023-03-31T18:33:50.028Z,99627.22
2023-03-31T18:36:20.192Z,99629.19
2023-03-31T18:38:50.238Z,99633.97
2023-03-31T18:41:20.164Z,99630.34
2023-03-31T18:43:48.553Z,99634.56
2023-03-31T18:46:15.999Z,99633.16
2023-03-31T18:48:43.848Z,99635.69
2023-03-31T18:51:12.476Z,99642.69
2023-03-31T18:53:40.270Z,99640.72
2023-03-31T18:56:09.404Z,99656.31
2023-03-31T18:58:38.073Z,99653.75
2023-03-31T19:01:08.224Z,99663.44
2023-03-31T19:03:37.177Z,99666.13
2023-03-31T19:06:08.962Z,99668.22
2023-03-31T19:08:39.559Z,99678.31
2023-03-31T19:11:13.783Z,99689.25
2023-03-31T19:13:43.508Z,99695.13
2023-03-31T19:16:12.681Z,99696.81
2023-03-31T19:18:41.907Z,99698.38
2023-03-31T19:21:10.236Z,99707.06
2023-03-31T19:23:38.895Z,99710.41
2023-03-31T19:26:08.955Z,99716.00
2023-03-31T19:28:36.782Z,99713.78
2023-03-31T19:31:05.387Z,99725.97
2023-03-31T19:33:33.434Z,99737.03
2023-03-31T19:36:03.335Z,99742.22
2023-03-31T19:38:32.756Z,99743.22
2023-03-31T19:41:02.318Z,99749.50
2023-03-31T19:43:31.004Z,99742.50
2023-03-31T19:46:00.687Z,99745.88
2023-03-31T19:48:33.441Z,99751.09
2023-03-31T19:51:04.233Z,99752.56
2023-03-31T19:53:40.259Z,99756.91
2023-03-31T19:56:19.213Z,99757.91
2023-03-31T19:58:47.944Z,99759.44
2023-03-31T20:01:28.338Z,99762.53
2023-03-31T20:03:58.318Z,99767.00
2023-03-31T20:06:29.157Z,99766.44
2023-03-31T20:09:01.800Z,99772.06
2023-03-31T20:11:32.640Z,99768.09
2023-03-31T20:14:03.031Z,99772.88
2023-03-31T20:16:31.761Z,99771.59
2023-03-31T20:19:04.741Z,99775.41
2023-03-31T20:21:36.218Z,99777.63
2023-03-31T20:24:04.516Z,99778.88
2023-03-31T20:26:32.122Z,99789.03
2023-03-31T20:29:02.405Z,99789.56
2023-03-31T20:31:31.185Z,99797.00
2023-03-31T20:33:59.554Z,99789.53
2023-03-31T20:36:30.518Z,99798.94
2023-03-31T20:38:59.155Z,99812.97
2023-03-31T20:41:30.565Z,99797.97
2023-03-31T20:44:01.574Z,99806.81
2023-03-31T20:46:30.087Z,99805.69
2023-03-31T20:48:58.859Z,99805.53
2023-03-31T20:51:33.958Z,99809.88
2023-03-31T20:54:05.080Z,99812.41
2023-03-31T20:56:54.699Z,99820.13
2023-03-31T20:59:22.899Z,99817.16
2023-03-31T21:01:50.532Z,99817.28
2023-03-31T21:04:18.391Z,99818.81
2023-03-31T21:06:47.716Z,99824.47
2023-03-31T21:09:16.496Z,99832.34
2023-03-31T21:11:45.231Z,99835.16
2023-03-31T21:14:15.375Z,99838.53
2023-03-31T21:16:43.644Z,99828.13
2023-03-31T21:19:13.480Z,99832.50
2023-03-31T21:21:42.013Z,99837.97
2023-03-31T21:24:13.291Z,99842.72
2023-03-31T21:26:41.613Z,99847.94
2023-03-31T21:29:10.256Z,99849.06
2023-03-31T21:31:38.098Z,99850.06
2023-03-31T21:34:06.028Z,99851.34
2023-03-31T21:36:33.311Z,99854.84
2023-03-31T21:39:00.695Z,99856.13
2023-03-31T21:41:31.319Z,99866.63
2023-03-31T21:44:02.767Z,99857.66
2023-03-31T21:46:33.342Z,99874.50
2023-03-31T21:49:01.787Z,99871.69
2023-03-31T21:51:30.443Z,99877.03
2023-03-31T21:53:58.130Z,99882.53
2023-03-31T21:56:28.189Z,99890.09
2023-03-31T21:58:56.469Z,99887.72
2023-03-31T22:01:24.086Z,99893.44
2023-03-31T22:03:52.461Z,99893.03
2023-03-31T22:06:22.176Z,99896.81
2023-03-31T22:08:49.910Z,99896.28
2023-03-31T22:11:19.113Z,99900.06
2023-03-31T22:13:47.006Z,99902.00
2023-03-31T22:16:20.690Z,99905.94
2023-03-31T22:18:50.571Z,99916.03
2023-03-31T22:21:22.056Z,99920.94
2023-03-31T22:23:51.818Z,99921.19
2023-03-31T22:26:18.964Z,99927.22
2023-03-31T22:28:46.153Z,99929.63
2023-03-31T22:31:13.443Z,99929.47
2023-03-31T22:33:40.693Z,99936.78
2023-03-31T22:36:08.453Z,99943.22
2023-03-31T22:38:35.937Z,99945.03
2023-03-31T22:41:03.137Z,99945.19
2023-03-31T22:43:30.399Z,99955.41
2023-03-31T22:45:57.769Z,99952.00
2023-03-31T22:48:24.783Z,99952.16
2023-03-31T22:50:51.846Z,99957.66
2023-03-31T22:53:18.954Z,99960.56
2023-03-31T22:55:53.778Z,99960.84
2023-03-31T22:58:21.974Z,99963.63
2023-03-31T23:00:57.730Z,99974.44
2023-03-31T23:03:25.960Z,99971.44
2023-03-31T23:05:53.321Z,99971.38
2023-03-31T23:08:20.353Z,99986.59
2023-03-31T23:11:01.155Z,99987.66
2023-03-31T23:13:29.352Z,99984.94
2023-03-31T23:15:56.579Z,99992.44
2023-03-31T23:18:23.813Z,99989.34
2023-03-31T23:20:50.999Z,99997.72
2023-03-31T23:23:18.015Z,100005.00
2023-03-31T23:25:45.072Z,99998.22
2023-03-31T23:28:12.326Z,100009.97
2023-03-31T23:30:40.270Z,100007.47
2023-03-31T23:33:08.936Z,100013.03
2023-03-31T23:35:36.196Z,100016.09
2023-03-31T23:38:03.477Z,100015.47
2023-03-31T23:40:30.870Z,100027.47
2023-03-31T23:42:58.106Z,100020.47
2023-03-31T23:45:26.922Z,100033.75
2023-03-31T23:47:54.587Z,100035.84
2023-03-31T23:50:21.928Z,100033.50
2023-03-31T23:52:49.518Z,100027.63
2023-03-31T23:55:17.168Z,100035.72
2023-03-31T23:57:44.268Z,100034.03
